createdAt,value
2023-05-01T00:01:40.236Z,7.63
2023-05-01T00:04:13.400Z,5.75
2023-05-01T00:06:47.857Z,4.43
2023-05-01T00:09:20.827Z,3.45
2023-05-01T00:11:53.675Z,5.45
2023-05-01T00:14:26.534Z,5.13
2023-05-01T00:16:59.581Z,3.45
2023-05-01T00:19:32.770Z,6.30
2023-05-01T00:22:06.986Z,4.57
2023-05-01T00:24:39.846Z,6.13
2023-05-01T00:27:12.710Z,5.45
2023-05-01T00:29:45.613Z,3.60
2023-05-01T00:32:18.715Z,7.88
2023-05-01T00:34:51.656Z,5.57
2023-05-01T00:37:26.147Z,5.53
2023-05-01T00:39:59.425Z,4.75
2023-05-01T00:42:36.017Z,6.07
2023-05-01T00:45:10.000Z,4.82
2023-05-01T00:47:43.059Z,5.80
2023-05-01T00:50:16.028Z,6.97
2023-05-01T00:52:50.214Z,6.47
2023-05-01T00:55:23.272Z,7.18
2023-05-01T00:57:57.356Z,3.30
2023-05-01T01:00:31.001Z,7.43
2023-05-01T01:03:05.810Z,5.20
2023-05-01T01:05:43.970Z,5.22
2023-05-01T01:08:23.605Z,4.95
2023-05-01T01:11:02.544Z,5.05
2023-05-01T01:13:44.751Z,4.55
2023-05-01T01:16:24.469Z,6.97
2023-05-01T01:19:02.877Z,4.03
2023-05-01T01:21:40.579Z,7.00
2023-05-01T01:24:33.884Z,6.13
2023-05-01T01:27:29.914Z,10.57
2023-05-01T01:30:29.370Z,8.65
2023-05-01T01:33:30.114Z,4.55
2023-05-01T01:36:09.138Z,5.28
2023-05-01T01:38:46.765Z,8.70
2023-05-01T01:41:25.350Z,6.18
2023-05-01T01:44:04.907Z,6.72
2023-05-01T01:46:40.754Z,4.93
2023-05-01T01:49:20.991Z,5.28
2023-05-01T01:51:58.000Z,5.32
2023-05-01T01:54:34.465Z,4.75
2023-05-01T01:57:09.156Z,6.38
2023-05-01T01:59:43.251Z,4.28
2023-05-01T02:02:18.450Z,6.68
2023-05-01T02:04:53.290Z,7.20
2023-05-01T02:07:30.571Z,8.45
2023-05-01T02:10:05.904Z,5.18
2023-05-01T02:12:39.705Z,6.70
2023-05-01T02:15:13.152Z,10.95
2023-05-01T02:17:46.541Z,6.57
2023-05-01T02:20:21.236Z,4.85
2023-05-01T02:22:55.961Z,4.13
2023-05-01T02:25:32.719Z,5.32
2023-05-01T02:28:13.488Z,6.05
2023-05-01T02:30:47.206Z,4.88
2023-05-01T02:33:20.154Z,5.07
2023-05-01T02:35:53.311Z,5.53
2023-05-01T02:38:28.461Z,6.28
2023-05-01T02:43:36.287Z,6.60
2023-05-01T02:46:11.693Z,5.05
2023-05-01T02:48:46.112Z,10.68
2023-05-01T02:51:20.706Z,5.47
2023-05-01T02:53:56.465Z,7.88
2023-05-01T02:56:30.078Z,5.75
2023-05-01T02:59:03.005Z,5.95
2023-05-01T03:01:36.916Z,5.82
2023-05-01T03:04:09.812Z,6.70
2023-05-01T03:06:44.337Z,4.80
2023-05-01T03:11:52.079Z,11.10
2023-05-01T03:14:25.125Z,8.05
2023-05-01T03:16:58.281Z,7.00
2023-05-01T03:19:31.623Z,7.70
2023-05-01T03:22:04.488Z,7.63
2023-05-01T03:24:38.911Z,7.28
2023-05-01T03:27:11.989Z,7.97
2023-05-01T03:29:45.120Z,9.30
2023-05-01T03:32:18.330Z,6.97
2023-05-01T03:34:52.958Z,7.72
2023-05-01T03:37:27.092Z,6.63
2023-05-01T03:40:01.380Z,4.97
2023-05-01T03:43:09.364Z,5.78
2023-05-01T03:45:44.724Z,5.90
2023-05-01T03:48:18.270Z,7.32
2023-05-01T03:50:51.604Z,7.10
2023-05-01T03:53:25.786Z,6.15
2023-05-01T03:56:00.134Z,12.43
2023-05-01T03:58:32.967Z,9.75
2023-05-01T04:01:05.984Z,5.38
2023-05-01T04:03:41.208Z,7.95
2023-05-01T04:06:14.353Z,8.32
2023-05-01T04:08:47.894Z,6.03
2023-05-01T04:11:22.089Z,6.38
2023-05-01T04:13:55.062Z,9.13
2023-05-01T04:16:27.980Z,6.70
2023-05-01T04:19:01.423Z,6.93
2023-05-01T04:21:35.892Z,7.00
2023-05-01T04:24:08.828Z,6.70
2023-05-01T04:26:43.133Z,9.05
2023-05-01T04:29:16.305Z,5.05
2023-05-01T04:31:49.259Z,6.03
2023-05-01T04:34:22.136Z,9.15
2023-05-01T04:36:55.164Z,7.40
2023-05-01T04:39:28.515Z,15.55
2023-05-01T04:42:04.582Z,7.25
2023-05-01T04:44:37.420Z,10.75
2023-05-01T04:47:10.351Z,8.90
2023-05-01T04:49:43.276Z,6.85
2023-05-01T04:52:16.800Z,8.10
2023-05-01T04:55:00.760Z,6.88
2023-05-01T04:57:37.544Z,8.30
2023-05-01T05:00:13.909Z,5.72
2023-05-01T05:02:56.447Z,8.30
2023-05-01T05:05:29.802Z,8.02
2023-05-01T05:08:02.995Z,5.82
2023-05-01T05:10:41.495Z,9.60
2023-05-01T05:13:34.706Z,8.02
2023-05-01T05:16:11.041Z,7.57
2023-05-01T05:18:44.314Z,8.15
2023-05-01T05:21:17.136Z,4.63
2023-05-01T05:23:57.256Z,5.47
2023-05-01T05:26:30.035Z,9.52
2023-05-01T05:29:09.422Z,5.45
2023-05-01T05:31:42.322Z,4.85
2023-05-01T05:34:15.461Z,7.85
2023-05-01T05:36:48.396Z,5.53
2023-05-01T05:39:23.842Z,5.72
2023-05-01T05:41:57.093Z,6.25
2023-05-01T05:44:32.981Z,9.57
2023-05-01T05:47:06.320Z,5.63
2023-05-01T05:49:39.645Z,7.05
2023-05-01T05:52:12.490Z,8.13
2023-05-01T05:54:46.167Z,8.45
2023-05-01T05:57:19.021Z,9.02
2023-05-01T05:59:57.593Z,6.97
2023-05-01T06:02:31.907Z,5.10
2023-05-01T06:05:07.448Z,6.45
2023-05-01T06:07:40.487Z,6.72
2023-05-01T06:10:13.418Z,6.88
2023-05-01T06:12:48.030Z,5.28
2023-05-01T06:15:36.482Z,8.77
2023-05-01T06:18:10.162Z,6.53
2023-05-01T06:20:43.029Z,8.93
2023-05-01T06:23:16.210Z,6.07
2023-05-01T06:26:28.056Z,5.35
2023-05-01T06:29:01.084Z,6.03
2023-05-01T06:31:35.994Z,4.32
2023-05-01T06:34:09.197Z,6.93
2023-05-01T06:36:51.397Z,6.78
2023-05-01T06:39:24.354Z,7.40
2023-05-01T06:41:57.155Z,8.25
2023-05-01T06:44:38.011Z,7.32
2023-05-01T06:47:12.986Z,4.05
2023-05-01T06:49:46.568Z,4.28
2023-05-01T06:52:19.424Z,7.35
2023-05-01T06:54:52.351Z,5.45
2023-05-01T06:57:25.796Z,5.85
2023-05-01T06:59:58.796Z,6.35
2023-05-01T07:02:33.321Z,6.78
2023-05-01T07:05:07.345Z,5.22
2023-05-01T07:07:44.594Z,9.20
2023-05-01T07:10:23.282Z,5.93
2023-05-01T07:12:56.583Z,6.93
2023-05-01T07:15:29.750Z,5.18
2023-05-01T07:18:05.941Z,5.97
2023-05-01T07:20:39.267Z,7.05
2023-05-01T07:23:12.277Z,4.82
2023-05-01T07:25:46.332Z,5.80
2023-05-01T07:28:20.323Z,6.20
2023-05-01T07:30:53.220Z,4.68
2023-05-01T07:33:27.409Z,7.15
2023-05-01T07:36:00.121Z,7.47
2023-05-01T07:38:33.174Z,3.55
2023-05-01T07:41:06.183Z,3.78
2023-05-01T07:43:38.923Z,5.50
2023-05-01T07:46:12.583Z,6.07
2023-05-01T07:48:46.748Z,3.83
2023-05-01T07:51:19.749Z,6.10
2023-05-01T07:53:52.946Z,5.15
2023-05-01T07:56:25.821Z,8.02
2023-05-01T07:58:58.558Z,4.70
2023-05-01T08:01:31.440Z,4.53
2023-05-01T08:04:06.136Z,5.35
2023-05-01T08:09:12.169Z,7.32
2023-05-01T08:11:44.955Z,5.93
2023-05-01T08:14:19.275Z,4.57
2023-05-01T08:16:55.180Z,3.95
2023-05-01T08:19:29.590Z,3.80
2023-05-01T08:22:02.843Z,4.82
2023-05-01T08:24:35.632Z,5.00
2023-05-01T08:27:08.858Z,5.78
2023-05-01T08:29:41.613Z,5.88
2023-05-01T08:32:15.355Z,10.13
2023-05-01T08:34:49.535Z,6.05
2023-05-01T08:37:22.323Z,5.22
2023-05-01T08:39:55.573Z,4.95
2023-05-01T08:42:32.146Z,3.90
2023-05-01T08:45:08.478Z,5.20
2023-05-01T08:47:42.756Z,5.32
2023-05-01T08:50:18.381Z,5.20
2023-05-01T08:52:54.111Z,4.25
2023-05-01T08:55:29.156Z,7.25
2023-05-01T08:58:03.355Z,5.55
2023-05-01T09:00:38.068Z,3.47
2023-05-01T09:05:47.241Z,4.57
2023-05-01T09:08:20.670Z,2.85
2023-05-01T09:10:55.072Z,4.65
2023-05-01T09:13:27.898Z,6.28
2023-05-01T09:16:01.623Z,4.07
2023-05-01T09:18:35.608Z,4.88
2023-05-01T09:21:10.373Z,6.47
2023-05-01T09:23:43.238Z,6.20
2023-05-01T09:26:16.178Z,4.55
2023-05-01T09:28:51.682Z,5.38
2023-05-01T09:31:28.810Z,3.70
2023-05-01T09:34:02.788Z,5.45
2023-05-01T09:36:37.446Z,3.60
2023-05-01T09:44:29.607Z,6.70
2023-05-01T09:47:03.889Z,3.40
2023-05-01T09:49:46.478Z,7.35
2023-05-01T09:52:20.946Z,5.55
2023-05-01T09:55:12.936Z,4.18
2023-05-01T09:57:47.626Z,2.88
2023-05-01T10:00:22.135Z,6.68
2023-05-01T10:02:55.473Z,5.93
2023-05-01T10:05:28.603Z,3.95
2023-05-01T10:08:04.836Z,5.03
2023-05-01T10:10:38.042Z,4.50
2023-05-01T10:13:15.338Z,6.32
2023-05-01T10:15:50.121Z,4.25
2023-05-01T10:18:24.003Z,6.18
2023-05-01T10:20:57.318Z,3.92
2023-05-01T10:23:31.454Z,4.15
2023-05-01T10:26:07.191Z,3.95
2023-05-01T10:28:42.066Z,3.10
2023-05-01T10:31:15.467Z,2.55
2023-05-01T10:33:48.864Z,4.53
2023-05-01T10:36:26.529Z,2.55
2023-05-01T10:39:00.738Z,2.15
2023-05-01T10:42:03.432Z,5.75
2023-05-01T10:44:36.386Z,2.45
2023-05-01T10:47:46.454Z,2.72
2023-05-01T10:50:19.260Z,3.58
2023-05-01T10:53:17.492Z,2.22
2023-05-01T10:55:51.760Z,2.17
2023-05-01T10:58:56.320Z,1.88
2023-05-01T11:01:34.171Z,1.52
2023-05-01T11:04:09.080Z,2.40
2023-05-01T11:07:19.064Z,1.85
2023-05-01T11:09:55.644Z,2.42
2023-05-01T11:12:53.735Z,3.33
2023-05-01T11:15:31.453Z,2.13
2023-05-01T11:18:05.947Z,3.20
2023-05-01T11:20:52.032Z,2.05
2023-05-01T11:23:27.394Z,2.22
2023-05-01T11:26:08.043Z,2.25
2023-05-01T11:28:42.324Z,2.40
2023-05-01T11:31:18.667Z,1.58
2023-05-01T11:33:51.662Z,1.77
2023-05-01T11:36:24.823Z,2.53
2023-05-01T11:39:00.598Z,1.60
2023-05-01T11:41:33.371Z,3.00
2023-05-01T11:44:06.186Z,1.77
2023-05-01T11:46:39.173Z,2.83
2023-05-01T11:49:12.423Z,1.58
2023-05-01T11:51:45.260Z,4.23
2023-05-01T11:54:19.555Z,2.13
2023-05-01T11:56:59.765Z,1.67
2023-05-01T11:59:32.650Z,0.93
2023-05-01T12:02:05.627Z,0.95
2023-05-01T12:04:38.756Z,2.58
2023-05-01T12:07:21.558Z,1.33
2023-05-01T12:09:55.962Z,1.60
2023-05-01T12:12:28.883Z,2.33
2023-05-01T12:15:01.789Z,2.70
2023-05-01T12:17:34.674Z,1.40
2023-05-01T12:20:09.248Z,3.75
2023-05-01T12:22:51.700Z,1.88
2023-05-01T12:25:31.932Z,1.27
2023-05-01T12:28:09.802Z,0.98
2023-05-01T12:30:46.320Z,0.88
2023-05-01T12:33:22.927Z,1.85
2023-05-01T12:35:55.724Z,1.38
2023-05-01T12:38:28.921Z,1.67
2023-05-01T12:41:09.352Z,2.22
2023-05-01T12:43:44.211Z,1.38
2023-05-01T12:46:17.654Z,2.25
2023-05-01T12:48:53.048Z,2.25
2023-05-01T12:51:27.451Z,0.63
2023-05-01T12:54:00.665Z,1.83
2023-05-01T12:56:34.903Z,2.40
2023-05-01T12:59:07.717Z,5.13
2023-05-01T13:01:41.142Z,2.10
2023-05-01T13:04:22.088Z,3.17
2023-05-01T13:07:11.332Z,1.88
2023-05-01T13:09:53.170Z,2.42
2023-05-01T13:12:31.038Z,2.45
2023-05-01T13:15:04.275Z,2.25
2023-05-01T13:17:38.400Z,2.17
2023-05-01T13:22:46.254Z,1.73
2023-05-01T13:25:20.510Z,2.38
2023-05-01T13:27:55.114Z,3.13
2023-05-01T13:30:33.604Z,4.20
2023-05-01T13:33:07.745Z,2.67
2023-05-01T13:35:41.018Z,2.72
2023-05-01T13:38:14.754Z,3.25
2023-05-01T13:40:50.551Z,1.48
2023-05-01T13:43:25.251Z,3.00
2023-05-01T13:46:00.230Z,3.22
2023-05-01T13:48:35.950Z,2.08
2023-05-01T13:51:09.294Z,1.92
2023-05-01T13:53:43.202Z,2.50
2023-05-01T13:56:16.201Z,1.33
2023-05-01T13:58:51.034Z,1.40
2023-05-01T14:01:24.541Z,3.03
2023-05-01T14:04:00.151Z,2.93
2023-05-01T14:06:33.349Z,1.98
2023-05-01T14:09:06.338Z,2.00
2023-05-01T14:11:46.460Z,1.77
2023-05-01T14:14:20.840Z,1.77
2023-05-01T14:16:54.025Z,1.02
2023-05-01T14:19:27.236Z,2.15
2023-05-01T14:22:00.585Z,1.73
2023-05-01T14:24:36.838Z,2.27
2023-05-01T14:27:10.558Z,3.28
2023-05-01T14:29:44.906Z,6.90
2023-05-01T14:32:17.740Z,4.40
2023-05-01T14:34:50.690Z,3.50
2023-05-01T14:37:24.101Z,2.83
2023-05-01T14:39:57.096Z,4.20
2023-05-01T14:42:31.407Z,2.85
2023-05-01T14:47:46.018Z,2.63
2023-05-01T14:50:22.904Z,4.53
2023-05-01T14:52:58.852Z,5.85
2023-05-01T14:55:34.592Z,8.88
2023-05-01T14:58:07.566Z,2.22
2023-05-01T15:00:41.778Z,1.95
2023-05-01T15:05:47.590Z,1.52
2023-05-01T15:08:24.232Z,2.67
2023-05-01T15:10:57.064Z,5.25
2023-05-01T15:13:31.716Z,5.63
2023-05-01T15:16:08.301Z,6.30
2023-05-01T15:18:41.781Z,7.10
2023-05-01T15:21:14.903Z,10.35
2023-05-01T15:23:47.920Z,9.73
2023-05-01T15:26:20.980Z,5.05
2023-05-01T15:28:54.270Z,5.22
2023-05-01T15:31:28.444Z,7.60
2023-05-01T15:34:01.705Z,6.35
2023-05-01T15:36:35.139Z,4.15
2023-05-01T15:39:11.665Z,6.57
2023-05-01T15:41:44.730Z,5.32
2023-05-01T15:44:17.549Z,4.07
2023-05-01T15:46:52.869Z,3.42
2023-05-01T15:49:25.802Z,2.83
2023-05-01T15:51:58.562Z,2.78
2023-05-01T15:54:31.359Z,5.70
2023-05-01T15:57:04.528Z,3.63
2023-05-01T15:59:40.034Z,3.70
2023-05-01T16:02:15.394Z,3.15
2023-05-01T16:04:48.818Z,3.53
2023-05-01T16:07:22.038Z,7.85
2023-05-01T16:09:56.971Z,3.65
2023-05-01T16:12:30.282Z,4.05
2023-05-01T16:15:03.638Z,3.55
2023-05-01T16:20:18.455Z,4.30
2023-05-01T16:22:51.896Z,4.28
2023-05-01T16:25:24.669Z,4.05
2023-05-01T16:27:57.588Z,3.65
2023-05-01T16:30:30.397Z,4.18
2023-05-01T16:33:05.077Z,3.33
2023-05-01T16:35:38.466Z,3.50
2023-05-01T16:38:11.345Z,2.58
2023-05-01T16:40:45.076Z,3.60
2023-05-01T16:43:17.966Z,6.13
2023-05-01T16:45:53.886Z,3.95
2023-05-01T16:48:28.988Z,2.53
2023-05-01T16:51:01.854Z,3.38
2023-05-01T16:53:35.667Z,3.78
2023-05-01T16:56:10.157Z,3.50
2023-05-01T17:01:17.070Z,3.20
2023-05-01T17:03:51.340Z,4.68
2023-05-01T17:06:24.441Z,3.08
2023-05-01T17:08:57.379Z,6.05
2023-05-01T17:11:31.941Z,3.85
2023-05-01T17:14:05.128Z,3.20
2023-05-01T17:16:38.224Z,5.75
2023-05-01T17:19:13.740Z,5.90
2023-05-01T17:21:46.708Z,4.18
2023-05-01T17:24:20.098Z,2.65
2023-05-01T17:26:53.286Z,2.78
2023-05-01T17:29:28.047Z,4.40
2023-05-01T17:32:02.307Z,3.80
2023-05-01T17:34:36.660Z,3.33
2023-05-01T17:39:42.994Z,2.33
2023-05-01T17:42:15.917Z,3.55
2023-05-01T17:44:48.754Z,2.70
2023-05-01T17:47:23.214Z,2.60
2023-05-01T17:50:00.859Z,4.35
2023-05-01T17:52:34.264Z,2.60
2023-05-01T17:55:08.049Z,3.60
2023-05-01T17:57:41.156Z,3.87
2023-05-01T18:00:16.112Z,3.30
2023-05-01T18:02:49.135Z,2.30
2023-05-01T18:05:23.748Z,4.85
2023-05-01T18:07:56.974Z,3.72
2023-05-01T18:10:31.109Z,4.18
2023-05-01T18:13:04.080Z,7.70
2023-05-01T18:15:36.881Z,4.10
2023-05-01T18:18:09.984Z,3.22
2023-05-01T18:20:44.208Z,4.80
2023-05-01T18:23:18.110Z,3.90
2023-05-01T18:25:50.998Z,5.35
2023-05-01T18:28:23.992Z,4.90
2023-05-01T18:30:57.397Z,3.33
2023-05-01T18:33:30.205Z,5.20
2023-05-01T18:36:05.115Z,4.68
2023-05-01T18:38:37.899Z,4.75
2023-05-01T18:41:10.769Z,5.38
2023-05-01T18:43:43.731Z,3.53
2023-05-01T18:46:18.590Z,4.68
2023-05-01T18:48:52.325Z,4.97
2023-05-01T18:51:26.684Z,6.03
2023-05-01T18:56:36.497Z,3.47
2023-05-01T18:59:09.726Z,5.53
2023-05-01T19:01:43.018Z,5.20
2023-05-01T19:04:16.940Z,4.43
2023-05-01T19:06:51.427Z,4.15
2023-05-01T19:09:24.627Z,4.80
2023-05-01T19:11:57.577Z,4.65
2023-05-01T19:14:30.410Z,5.35
2023-05-01T19:17:03.552Z,6.15
2023-05-01T19:19:36.866Z,5.32
2023-05-01T19:22:11.472Z,4.35
2023-05-01T19:27:17.991Z,7.53
2023-05-01T19:29:52.448Z,9.52
2023-05-01T19:32:25.629Z,8.93
2023-05-01T19:34:58.537Z,8.07
2023-05-01T19:37:32.983Z,8.65
2023-05-01T19:40:08.832Z,8.90
2023-05-01T19:42:41.641Z,8.80
2023-05-01T19:45:16.351Z,6.85
2023-05-01T19:47:50.781Z,10.32
2023-05-01T19:50:23.617Z,8.32
2023-05-01T19:52:59.418Z,7.53
2023-05-01T19:55:32.321Z,8.57
2023-05-01T19:58:05.484Z,12.38
2023-05-01T20:00:38.341Z,7.03
2023-05-01T20:03:11.471Z,10.02
2023-05-01T20:05:44.419Z,7.38
2023-05-01T20:08:18.562Z,9.70
2023-05-01T20:10:51.403Z,7.55
2023-05-01T20:13:24.328Z,9.45
2023-05-01T20:15:57.232Z,8.40
2023-05-01T20:18:30.151Z,8.30
2023-05-01T20:21:02.978Z,6.55
2023-05-01T20:23:37.207Z,7.40
2023-05-01T20:26:10.034Z,8.07
2023-05-01T20:28:42.965Z,6.13
2023-05-01T20:31:15.935Z,7.00
2023-05-01T20:33:48.900Z,6.57
2023-05-01T20:36:23.540Z,8.20
2023-05-01T20:38:58.979Z,7.07
2023-05-01T20:41:31.952Z,6.18
2023-05-01T20:44:05.166Z,7.05
2023-05-01T20:46:38.251Z,8.95
2023-05-01T20:49:15.628Z,7.30
2023-05-01T20:51:48.967Z,10.68
2023-05-01T20:54:23.376Z,8.15
2023-05-01T20:56:56.190Z,7.97
2023-05-01T20:59:29.266Z,10.85
2023-05-01T21:02:04.454Z,7.60
2023-05-01T21:04:38.018Z,8.95
2023-05-01T21:07:11.185Z,11.15
2023-05-01T21:09:46.335Z,7.90
2023-05-01T21:12:19.169Z,11.02
2023-05-01T21:14:52.346Z,10.63
2023-05-01T21:17:26.270Z,10.75
2023-05-01T21:19:59.353Z,13.33
2023-05-01T21:22:32.970Z,12.02
2023-05-01T21:25:10.227Z,11.23
2023-05-01T21:27:43.208Z,14.15
2023-05-01T21:30:21.909Z,12.93
2023-05-01T21:32:54.816Z,12.45
2023-05-01T21:35:29.397Z,14.35
2023-05-01T21:38:02.414Z,13.30
2023-05-01T21:40:39.135Z,14.85
2023-05-01T21:43:11.983Z,14.88
2023-05-01T21:45:45.795Z,15.23
2023-05-01T21:48:20.332Z,15.40
2023-05-01T21:50:53.500Z,16.25
2023-05-01T21:53:28.702Z,14.77
2023-05-01T21:56:03.102Z,14.73
2023-05-01T21:58:36.218Z,15.45
2023-05-01T22:01:10.292Z,15.95
2023-05-01T22:03:44.475Z,16.45
2023-05-01T22:06:17.449Z,16.33
2023-05-01T22:08:51.159Z,15.63
2023-05-01T22:11:26.500Z,15.15
2023-05-01T22:14:01.748Z,15.07
2023-05-01T22:16:34.724Z,17.33
2023-05-01T22:19:08.287Z,15.07
2023-05-01T22:21:41.158Z,14.63
2023-05-01T22:24:13.962Z,14.52
2023-05-01T22:26:50.013Z,16.42
2023-05-01T22:29:22.860Z,18.02
2023-05-01T22:31:56.631Z,18.98
2023-05-01T22:34:29.607Z,19.93
2023-05-01T22:37:02.482Z,16.83
2023-05-01T22:39:36.210Z,17.35
2023-05-01T22:42:10.459Z,18.88
2023-05-01T22:44:43.229Z,16.35
2023-05-01T22:47:16.122Z,17.25
2023-05-01T22:49:48.880Z,17.75
2023-05-01T22:52:21.700Z,17.20
2023-05-01T22:54:55.905Z,19.58
2023-05-01T22:57:30.088Z,19.27
2023-05-01T23:00:03.040Z,21.17
2023-05-01T23:02:36.505Z,17.45
2023-05-01T23:05:11.298Z,16.65
2023-05-01T23:10:16.950Z,16.58
2023-05-01T23:12:51.223Z,21.85
2023-05-01T23:15:25.958Z,23.35
2023-05-01T23:17:58.811Z,22.13
2023-05-01T23:20:31.603Z,23.80
2023-05-01T23:23:10.327Z,25.83
2023-05-01T23:25:46.399Z,25.08
2023-05-01T23:28:25.726Z,23.73
2023-05-01T23:31:00.609Z,19.35
2023-05-01T23:33:36.871Z,23.35
2023-05-01T23:36:12.271Z,21.98
2023-05-01T23:38:45.061Z,25.33
2023-05-01T23:41:18.260Z,20.92
2023-05-01T23:43:52.686Z,20.30
2023-05-01T23:46:25.628Z,22.10
2023-05-01T23:48:58.444Z,24.55
2023-05-01T23:51:31.677Z,23.27
2023-05-01T23:54:05.005Z,23.00
2023-05-01T23:56:37.816Z,25.20
2023-05-01T23:59:12.046Z,24.33
